Time;durP1;ratioP1;P1;durP2;ratioP2;P2;SDS_P1;SDS_P2;PMS_P1;PMS_P2;Temp;Humidity;BMP_temperature;BMP_pressure;BME280_temperature;BME280_humidity;BME280_pressure;Samples;Min_cycle;Max_cycle;Signal;HPM_P1;HPM_P2
2021/03/03 00:01:14;;;;;;;61.27;25.47;;;;;;;;;;5054271;28;20021;-80
2021/03/03 00:03:40;;;;;;;53.70;23.50;;;;;;;;;;5052949;28;20028;-80
2021/03/03 00:06:05;;;;;;;47.53;22.93;;;;;;;;;;5052952;28;20025;-80
2021/03/03 00:08:30;;;;;;;46.17;21.37;;;;;;;;;;5052786;28;20048;-80
2021/03/03 00:10:56;;;;;;;45.67;22.73;;;;;;;;;;5052768;28;20029;-81
2021/03/03 00:13:21;;;;;;;44.33;21.10;;;;;;;;;;5052931;28;20020;-80
2021/03/03 00:15:46;;;;;;;42.17;20.23;;;;;;;;;;5052468;28;20017;-80
2021/03/03 00:18:11;;;;;;;47.40;21.03;;;;;;;;;;5053992;28;20017;-80
2021/03/03 00:20:36;;;;;;;47.30;20.40;;;;;;;;;;5052438;28;20534;-80
2021/03/03 00:23:01;;;;;;;50.70;20.97;;;;;;;;;;5052693;28;20025;-80
2021/03/03 00:25:27;;;;;;;44.13;20.00;;;;;;;;;;5052623;28;20020;-80
2021/03/03 00:27:52;;;;;;;48.87;20.33;;;;;;;;;;5052382;28;20024;-79
2021/03/03 00:30:17;;;;;;;46.17;20.03;;;;;;;;;;5052251;28;20017;-80
2021/03/03 00:32:43;;;;;;;47.70;21.07;;;;;;;;;;5053461;28;20479;-80
2021/03/03 00:35:08;;;;;;;49.03;20.80;;;;;;;;;;5052456;28;20490;-80
2021/03/03 00:37:33;;;;;;;64.93;22.67;;;;;;;;;;5053648;28;20017;-80
2021/03/03 00:39:59;;;;;;;51.57;22.00;;;;;;;;;;5052401;28;20020;-80
2021/03/03 00:42:24;;;;;;;45.87;20.70;;;;;;;;;;5051827;28;20021;-81
2021/03/03 00:44:49;;;;;;;45.33;21.50;;;;;;;;;;5053294;28;20504;-80
2021/03/03 00:47:14;;;;;;;48.87;21.80;;;;;;;;;;5052211;28;20112;-81
2021/03/03 00:49:39;;;;;;;44.70;21.00;;;;;;;;;;5052151;28;20503;-81
2021/03/03 00:52:04;;;;;;;41.27;19.97;;;;;;;;;;5051979;28;20033;-80
2021/03/03 00:54:30;;;;;;;44.70;20.20;;;;;;;;;;5052039;28;20368;-80
2021/03/03 00:56:55;;;;;;;45.53;20.87;;;;;;;;;;5052071;28;20100;-80
2021/03/03 00:59:20;;;;;;;47.37;20.47;;;;;;;;;;5053375;28;20029;-80
2021/03/03 01:01:45;;;;;;;51.67;20.27;;;;;;;;;;5051816;28;20112;-80
2021/03/03 01:04:10;;;;;;;39.43;19.37;;;;;;;;;;5053144;28;20017;-80
2021/03/03 01:06:36;;;;;;;46.93;19.63;;;;;;;;;;5051412;28;20063;-80
2021/03/03 01:09:01;;;;;;;42.27;19.30;;;;;;;;;;5051690;28;20024;-80
2021/03/03 01:11:26;;;;;;;41.87;18.20;;;;;;;;;;5051733;28;20122;-81
2021/03/03 01:13:51;;;;;;;49.67;18.67;;;;;;;;;;5051586;28;20013;-80
2021/03/03 01:16:16;;;;;;;44.70;19.87;;;;;;;;;;5051759;28;20112;-80
2021/03/03 01:18:42;;;;;;;43.80;20.27;;;;;;;;;;5051706;28;20440;-80
2021/03/03 01:21:07;;;;;;;42.77;19.87;;;;;;;;;;5052750;28;20028;-80
2021/03/03 01:23:32;;;;;;;47.93;21.63;;;;;;;;;;5051649;28;20033;-80
2021/03/03 01:25:57;;;;;;;45.87;19.67;;;;;;;;;;5051441;28;20021;-80
2021/03/03 01:28:22;;;;;;;44.93;21.03;;;;;;;;;;5051571;28;20052;-80
2021/03/03 01:30:48;;;;;;;48.87;20.87;;;;;;;;;;5050853;28;20051;-80
2021/03/03 01:33:26;;;;;;;52.87;20.93;;;;;;;;;;5051579;28;20012;-80
2021/03/03 01:35:51;;;;;;;47.17;19.67;;;;;;;;;;5051316;28;20031;-80
2021/03/03 01:38:17;;;;;;;42.80;20.93;;;;;;;;;;5051490;28;20013;-80
2021/03/03 01:40:42;;;;;;;47.40;20.60;;;;;;;;;;5052587;28;20028;-80
2021/03/03 01:43:07;;;;;;;46.80;18.73;;;;;;;;;;5051105;28;20434;-80
2021/03/03 01:45:32;;;;;;;47.17;20.97;;;;;;;;;;5051198;28;20025;-80
2021/03/03 01:47:57;;;;;;;49.87;21.20;;;;;;;;;;5051043;28;20013;-80
2021/03/03 01:50:23;;;;;;;47.23;21.37;;;;;;;;;;5052625;28;20195;-80
2021/03/03 01:52:48;;;;;;;42.53;20.63;;;;;;;;;;5050049;28;20025;-80
2021/03/03 01:55:13;;;;;;;49.63;19.93;;;;;;;;;;5051153;28;20013;-80
2021/03/03 01:57:38;;;;;;;47.53;20.30;;;;;;;;;;5052605;28;20068;-80
2021/03/03 02:00:04;;;;;;;45.43;20.53;;;;;;;;;;5051062;28;20044;-80
2021/03/03 02:02:30;;;;;;;42.30;19.80;;;;;;;;;;5051148;28;20024;-80
2021/03/03 02:04:55;;;;;;;44.27;20.27;;;;;;;;;;5052266;28;20027;-80
2021/03/03 02:07:36;;;;;;;42.63;19.43;;;;;;;;;;5052354;28;20397;-80
2021/03/03 02:10:04;;;;;;;50.30;19.30;;;;;;;;;;5051021;28;20116;-80
2021/03/03 02:12:39;;;;;;;46.73;20.67;;;;;;;;;;5050832;28;20491;-80
2021/03/03 02:15:06;;;;;;;51.83;21.77;;;;;;;;;;5051076;28;20023;-80
2021/03/03 02:17:31;;;;;;;50.07;19.90;;;;;;;;;;5050697;28;20040;-80
2021/03/03 02:20:01;;;;;;;42.13;19.80;;;;;;;;;;5051079;28;20345;-80
2021/03/03 02:22:45;;;;;;;50.43;20.57;;;;;;;;;;5052473;28;20094;-80
2021/03/03 02:25:16;;;;;;;46.77;20.23;;;;;;;;;;5052275;28;20021;-80
2021/03/03 02:27:42;;;;;;;46.00;19.77;;;;;;;;;;5050836;28;20009;-80
2021/03/03 02:30:07;;;;;;;52.07;20.13;;;;;;;;;;5051742;28;20021;-80
2021/03/03 02:32:32;;;;;;;51.73;21.50;;;;;;;;;;5052039;28;20063;-80
2021/03/03 02:34:58;;;;;;;48.97;20.63;;;;;;;;;;5052217;28;20372;-80
2021/03/03 02:37:23;;;;;;;49.30;21.57;;;;;;;;;;5052221;28;20016;-80
2021/03/03 02:39:49;;;;;;;44.13;19.60;;;;;;;;;;5050981;28;20032;-80
2021/03/03 02:42:15;;;;;;;43.90;21.17;;;;;;;;;;5065910;28;20469;-80
2021/03/03 02:44:41;;;;;;;46.43;20.37;;;;;;;;;;5067260;28;20097;-80
2021/03/03 02:47:06;;;;;;;41.87;19.27;;;;;;;;;;5067446;28;20024;-80
2021/03/03 02:49:32;;;;;;;42.23;19.10;;;;;;;;;;5067230;28;20017;-80
2021/03/03 02:51:57;;;;;;;44.40;18.57;;;;;;;;;;5058418;28;20358;-80
2021/03/03 02:54:23;;;;;;;46.30;20.23;;;;;;;;;;5067382;28;20017;-80
2021/03/03 02:56:48;;;;;;;56.33;20.90;;;;;;;;;;5067275;28;20025;-80
2021/03/03 02:59:17;;;;;;;46.07;20.97;;;;;;;;;;5067284;28;20044;-80
2021/03/03 03:01:44;;;;;;;48.07;20.63;;;;;;;;;;5067356;28;20032;-80
2021/03/03 03:04:11;;;;;;;45.00;19.73;;;;;;;;;;5068229;28;20017;-80
2021/03/03 03:06:38;;;;;;;53.17;20.23;;;;;;;;;;5054034;28;20465;-80
2021/03/03 03:09:06;;;;;;;49.23;20.37;;;;;;;;;;5055264;28;20021;-80
2021/03/03 03:11:31;;;;;;;38.83;19.23;;;;;;;;;;5070529;28;20510;-80
2021/03/03 03:14:03;;;;;;;44.00;19.97;;;;;;;;;;5070372;28;20028;-80
2021/03/03 03:16:29;;;;;;;45.65;19.20;;;;;;;;;;5070631;28;20093;-80
2021/03/03 03:18:57;;;;;;;47.30;20.77;;;;;;;;;;5053951;28;20028;-80
2021/03/03 03:21:23;;;;;;;47.73;20.60;;;;;;;;;;5053743;28;20463;-80
2021/03/03 03:23:48;;;;;;;40.37;19.80;;;;;;;;;;5070553;28;20025;-80
2021/03/03 03:26:14;;;;;;;41.10;19.20;;;;;;;;;;5053558;28;20400;-80
2021/03/03 03:28:40;;;;;;;42.80;19.20;;;;;;;;;;5070178;28;20013;-80
2021/03/03 03:31:05;;;;;;;42.30;19.23;;;;;;;;;;5053487;28;20445;-80
2021/03/03 03:33:31;;;;;;;41.30;19.13;;;;;;;;;;5070417;28;20031;-80
2021/03/03 03:35:57;;;;;;;41.87;20.23;;;;;;;;;;5053625;28;20021;-80
2021/03/03 03:38:22;;;;;;;55.73;21.07;;;;;;;;;;5070053;28;20540;-80
2021/03/03 03:40:48;;;;;;;47.37;19.43;;;;;;;;;;5070283;28;20357;-80
2021/03/03 03:43:13;;;;;;;41.13;18.77;;;;;;;;;;5070038;28;20460;-80
2021/03/03 03:45:38;;;;;;;55.07;19.27;;;;;;;;;;5054674;28;20098;-80
2021/03/03 03:48:04;;;;;;;52.47;19.67;;;;;;;;;;5053213;28;20067;-79
2021/03/03 03:50:30;;;;;;;44.03;19.97;;;;;;;;;;5086479;28;20396;-80
2021/03/03 03:52:56;;;;;;;41.73;18.70;;;;;;;;;;5054359;28;20016;-80
2021/03/03 03:55:35;;;;;;;44.73;19.73;;;;;;;;;;5069677;28;20028;-80
2021/03/03 03:58:01;;;;;;;44.13;17.70;;;;;;;;;;5053123;28;20028;-80
2021/03/03 04:00:27;;;;;;;42.93;19.43;;;;;;;;;;5069901;28;20071;-80
2021/03/03 04:02:52;;;;;;;42.20;18.67;;;;;;;;;;5054446;28;20379;-80
2021/03/03 04:05:18;;;;;;;43.47;19.20;;;;;;;;;;5054166;28;20463;-79
2021/03/03 04:07:43;;;;;;;38.93;18.60;;;;;;;;;;5062021;28;20437;-80
2021/03/03 04:10:09;;;;;;;46.87;19.93;;;;;;;;;;5054122;28;20040;-80
2021/03/03 04:12:35;;;;;;;35.03;14.77;;;;;;;;;;5054026;28;20028;-80
2021/03/03 04:15:00;;;;;;;33.73;15.90;;;;;;;;;;5054006;28;20025;-80
2021/03/03 04:17:25;;;;;;;35.00;17.97;;;;;;;;;;5068787;28;20408;-80
2021/03/03 04:19:50;;;;;;;39.37;16.90;;;;;;;;;;5054112;28;20461;-80
2021/03/03 04:22:16;;;;;;;38.20;17.70;;;;;;;;;;5052533;28;20029;-80
2021/03/03 04:24:41;;;;;;;39.77;17.30;;;;;;;;;;5069309;28;20472;-80
2021/03/03 04:27:06;;;;;;;46.10;19.60;;;;;;;;;;5069490;28;20048;-80
2021/03/03 04:29:31;;;;;;;43.03;19.23;;;;;;;;;;5053495;28;20049;-80
2021/03/03 04:31:56;;;;;;;41.07;18.83;;;;;;;;;;5069091;28;20013;-80
2021/03/03 04:34:22;;;;;;;42.00;18.13;;;;;;;;;;5053681;28;20348;-81
2021/03/03 04:36:47;;;;;;;37.90;17.50;;;;;;;;;;5052447;28;20016;-80
2021/03/03 04:39:12;;;;;;;44.80;18.43;;;;;;;;;;5068912;28;20027;-80
2021/03/03 04:41:37;;;;;;;42.70;17.73;;;;;;;;;;5069112;28;20313;-80
2021/03/03 04:44:02;;;;;;;38.97;18.23;;;;;;;;;;5053635;28;20025;-80
2021/03/03 04:46:28;;;;;;;42.20;18.20;;;;;;;;;;5068714;28;20040;-81
2021/03/03 04:48:53;;;;;;;39.60;17.37;;;;;;;;;;5068756;28;20428;-80
2021/03/03 04:51:18;;;;;;;43.57;19.13;;;;;;;;;;5051986;28;20403;-80
2021/03/03 04:53:43;;;;;;;44.63;18.57;;;;;;;;;;5053527;28;20096;-80
2021/03/03 04:56:08;;;;;;;55.23;19.50;;;;;;;;;;5068678;28;20047;-80
2021/03/03 04:58:34;;;;;;;44.67;17.93;;;;;;;;;;5053181;28;20016;-80
2021/03/03 05:00:59;;;;;;;43.53;17.57;;;;;;;;;;5068661;28;20032;-80
2021/03/03 05:03:24;;;;;;;38.63;16.67;;;;;;;;;;5051847;28;20025;-80
2021/03/03 05:05:50;;;;;;;40.03;17.97;;;;;;;;;;5068422;28;20302;-80
2021/03/03 05:08:15;;;;;;;38.97;17.40;;;;;;;;;;5051916;28;20133;-80
2021/03/03 05:10:41;;;;;;;37.27;16.83;;;;;;;;;;5068333;28;20106;-80
2021/03/03 05:13:12;;;;;;;43.13;18.23;;;;;;;;;;5051844;28;20050;-80
2021/03/03 05:15:37;;;;;;;44.92;18.08;;;;;;;;;;5053010;28;20017;-80
2021/03/03 05:18:03;;;;;;;38.87;17.67;;;;;;;;;;5053070;28;20107;-80
2021/03/03 05:20:28;;;;;;;40.17;17.97;;;;;;;;;;5051608;28;20036;-80
2021/03/03 05:22:53;;;;;;;47.23;17.90;;;;;;;;;;5053011;28;20028;-80
2021/03/03 05:25:19;;;;;;;44.47;18.10;;;;;;;;;;5068194;28;20044;-80
2021/03/03 05:27:44;;;;;;;41.90;17.27;;;;;;;;;;5051400;28;20063;-80
2021/03/03 05:30:09;;;;;;;40.77;17.07;;;;;;;;;;5063271;28;20661;-80
2021/03/03 05:32:35;;;;;;;37.77;16.63;;;;;;;;;;5060042;28;20047;-80
2021/03/03 05:35:00;;;;;;;53.67;18.80;;;;;;;;;;5068160;28;20074;-80
2021/03/03 05:37:25;;;;;;;47.00;18.57;;;;;;;;;;5052546;28;20104;-79
2021/03/03 05:39:50;;;;;;;33.77;15.77;;;;;;;;;;5052725;28;20051;-80
2021/03/03 05:42:16;;;;;;;47.03;19.70;;;;;;;;;;5068117;28;20362;-80
2021/03/03 05:44:45;;;;;;;49.53;19.97;;;;;;;;;;5051261;28;20049;-80
2021/03/03 05:47:10;;;;;;;38.87;18.43;;;;;;;;;;5067965;28;20036;-80
2021/03/03 05:49:38;;;;;;;48.17;20.70;;;;;;;;;;5051208;28;20029;-80
2021/03/03 05:52:05;;;;;;;41.57;19.87;;;;;;;;;;5052062;28;20051;-80
2021/03/03 05:54:30;;;;;;;47.53;22.10;;;;;;;;;;5065506;28;20052;-80
2021/03/03 05:56:56;;;;;;;45.63;20.73;;;;;;;;;;5067863;28;20047;-80
2021/03/03 05:59:21;;;;;;;66.20;25.77;;;;;;;;;;5067941;28;20102;-80
2021/03/03 06:01:48;;;;;;;46.60;21.57;;;;;;;;;;5058720;28;20079;-80
2021/03/03 06:04:13;;;;;;;50.93;20.23;;;;;;;;;;5067943;28;20025;-80
2021/03/03 06:06:42;;;;;;;41.30;19.63;;;;;;;;;;5067992;28;20021;-80
2021/03/03 06:09:07;;;;;;;51.73;19.63;;;;;;;;;;5067654;28;20013;-80
2021/03/03 06:11:33;;;;;;;44.20;19.20;;;;;;;;;;5067724;28;20031;-80
2021/03/03 06:13:58;;;;;;;40.90;19.00;;;;;;;;;;5067508;28;20019;-80
2021/03/03 06:16:24;;;;;;;43.67;20.37;;;;;;;;;;5052825;28;20025;-79
2021/03/03 06:18:49;;;;;;;48.70;18.77;;;;;;;;;;5067563;28;20036;-80
2021/03/03 06:21:28;;;;;;;44.60;18.33;;;;;;;;;;5050618;28;20033;-80
2021/03/03 06:24:06;;;;;;;43.77;18.60;;;;;;;;;;5050844;28;20528;-80
2021/03/03 06:26:32;;;;;;;43.87;19.53;;;;;;;;;;5052114;28;20040;-80
2021/03/03 06:28:57;;;;;;;43.80;18.53;;;;;;;;;;5067469;28;20131;-81
2021/03/03 06:31:22;;;;;;;39.53;18.23;;;;;;;;;;5067659;28;20376;-80
2021/03/03 06:33:48;;;;;;;46.03;17.70;;;;;;;;;;5067541;28;20071;-80
2021/03/03 06:36:20;;;;;;;38.70;17.83;;;;;;;;;;5052025;28;20020;-80
2021/03/03 06:38:45;;;;;;;;;;;;;;;;;;5068460;28;20017;-80
2021/03/03 06:41:11;;;;;;;38.83;18.60;;;;;;;;;;5070990;28;19919;-80
2021/03/03 06:43:36;;;;;;;39.37;19.10;;;;;;;;;;5054633;28;20265;-80
2021/03/03 06:46:17;;;;;;;45.87;19.17;;;;;;;;;;5070753;28;20025;-80
2021/03/03 06:48:43;;;;;;;47.93;20.03;;;;;;;;;;5070782;28;20013;-80
2021/03/03 06:51:28;;;;;;;41.70;18.10;;;;;;;;;;5055430;28;20097;-80
2021/03/03 06:53:55;;;;;;;41.63;19.87;;;;;;;;;;5070663;28;20024;-80
2021/03/03 06:56:36;;;;;;;46.57;19.43;;;;;;;;;;5055288;28;20078;-80
2021/03/03 06:59:09;;;;;;;42.50;19.03;;;;;;;;;;5070762;28;20079;-80
2021/03/03 07:01:34;;;;;;;41.00;18.60;;;;;;;;;;5070552;28;20060;-80
2021/03/03 07:04:00;;;;;;;43.90;19.00;;;;;;;;;;5070026;28;20056;-80
2021/03/03 07:06:31;;;;;;;47.00;20.17;;;;;;;;;;5053125;28;20025;-80
2021/03/03 07:08:58;;;;;;;39.47;19.70;;;;;;;;;;5053321;28;20017;-80
2021/03/03 07:11:25;;;;;;;47.50;19.80;;;;;;;;;;5054138;28;20111;-80
2021/03/03 07:13:51;;;;;;;44.40;21.00;;;;;;;;;;5054588;28;20037;-80
2021/03/03 07:16:16;;;;;;;42.07;21.40;;;;;;;;;;5054881;28;20032;-80
2021/03/03 07:18:41;;;;;;;53.07;20.00;;;;;;;;;;5070017;28;20032;-80
2021/03/03 07:21:08;;;;;;;44.57;21.43;;;;;;;;;;5053792;28;20017;-80
2021/03/03 07:23:49;;;;;;;54.10;20.53;;;;;;;;;;5053392;28;20040;-80
2021/03/03 07:26:15;;;;;;;44.60;20.20;;;;;;;;;;5041697;28;20029;-80
2021/03/03 07:28:40;;;;;;;46.17;18.80;;;;;;;;;;5053632;28;20650;-80
2021/03/03 07:31:07;;;;;;;39.63;19.47;;;;;;;;;;5053425;28;20483;-80
2021/03/03 07:33:32;;;;;;;46.10;19.77;;;;;;;;;;5070342;28;20036;-80
2021/03/03 07:35:58;;;;;;;45.33;20.17;;;;;;;;;;5067721;28;20025;-80
2021/03/03 07:38:25;;;;;;;45.27;20.07;;;;;;;;;;5052067;28;20032;-80
2021/03/03 07:40:50;;;;;;;43.00;20.57;;;;;;;;;;5052968;28;20071;-81
2021/03/03 07:43:18;;;;;;;54.37;21.67;;;;;;;;;;5052773;28;20496;-80
2021/03/03 07:45:43;;;;;;;62.10;22.67;;;;;;;;;;5052802;28;20021;-80
2021/03/03 07:48:10;;;;;;;48.90;21.27;;;;;;;;;;5053692;28;20031;-80
2021/03/03 07:50:36;;;;;;;43.60;19.77;;;;;;;;;;5051263;28;20530;-80
2021/03/03 07:53:01;;;;;;;44.67;20.13;;;;;;;;;;5053017;28;20025;-80
2021/03/03 07:55:27;;;;;;;47.90;20.70;;;;;;;;;;5057130;28;20391;-80
2021/03/03 07:57:56;;;;;;;50.10;21.77;;;;;;;;;;5052845;28;20135;-79
2021/03/03 08:00:31;;;;;;;54.27;22.33;;;;;;;;;;5054237;28;20019;-81
2021/03/03 08:02:56;;;;;;;49.43;21.70;;;;;;;;;;5054373;28;20112;-80
2021/03/03 08:05:30;;;;;;;49.43;21.70;;;;;;;;;;5054069;28;20132;-80
2021/03/03 08:08:23;;;;;;;52.13;21.73;;;;;;;;;;5061992;28;20522;-81
2021/03/03 08:10:48;;;;;;;49.00;21.83;;;;;;;;;;5053409;28;20041;-79
2021/03/03 08:13:15;;;;;;;51.83;21.37;;;;;;;;;;5054149;28;20025;-81
2021/03/03 08:15:56;;;;;;;51.10;22.03;;;;;;;;;;5052628;28;20021;-81
2021/03/03 08:18:23;;;;;;;56.03;22.23;;;;;;;;;;5059691;28;20094;-80
2021/03/03 08:20:50;;;;;;;50.33;22.60;;;;;;;;;;5052138;28;20029;-80
2021/03/03 08:23:33;;;;;;;66.23;25.30;;;;;;;;;;5060130;28;20032;-80
2021/03/03 08:26:01;;;;;;;58.07;23.77;;;;;;;;;;5053425;28;20021;-81
2021/03/03 08:28:32;;;;;;;61.63;23.80;;;;;;;;;;5069145;28;20024;-80
2021/03/03 08:31:06;;;;;;;52.90;23.30;;;;;;;;;;5062061;28;20035;-80
2021/03/03 08:33:31;;;;;;;54.67;24.73;;;;;;;;;;5069208;28;20408;-80
2021/03/03 08:35:57;;;;;;;51.50;23.93;;;;;;;;;;5053245;28;20056;-81
2021/03/03 08:38:22;;;;;;;62.30;24.80;;;;;;;;;;5051144;28;20384;-80
2021/03/03 08:40:47;;;;;;;58.30;25.50;;;;;;;;;;5052178;28;20021;-80
2021/03/03 08:43:48;;;;;;;50.00;24.97;;;;;;;;;;5063751;28;20028;-80
2021/03/03 08:46:34;;;;;;;58.93;24.47;;;;;;;;;;5067022;28;20067;-80
2021/03/03 08:48:59;;;;;;;59.23;25.40;;;;;;;;;;5052906;28;20037;-81
2021/03/03 08:51:28;;;;;;;67.90;27.23;;;;;;;;;;5053420;28;20702;-80
2021/03/03 08:53:54;;;;;;;72.77;28.43;;;;;;;;;;5053218;28;20035;-81
2021/03/03 08:56:38;;;;;;;62.37;26.73;;;;;;;;;;5068530;28;20025;-80
2021/03/03 08:59:06;;;;;;;55.87;25.73;;;;;;;;;;5052414;28;20025;-81
2021/03/03 09:01:51;;;;;;;65.53;26.17;;;;;;;;;;5049063;28;20100;-81
2021/03/03 09:04:17;;;;;;;54.50;22.60;;;;;;;;;;5052919;28;20017;-81
2021/03/03 09:07:05;;;;;;;47.05;19.42;;;;;;;;;;5050677;28;20025;-81
2021/03/03 09:09:49;;;;;;;51.25;22.83;;;;;;;;;;5046415;28;20102;-81
2021/03/03 09:12:15;;;;;;;55.17;22.60;;;;;;;;;;5053376;28;20119;-81
2021/03/03 09:14:40;;;;;;;51.47;22.77;;;;;;;;;;5060552;28;20088;-80
2021/03/03 09:17:07;;;;;;;45.88;20.02;;;;;;;;;;5051902;28;20377;-80
2021/03/03 09:19:32;;;;;;;53.05;23.85;;;;;;;;;;5052301;28;20032;-81
2021/03/03 09:21:58;;;;;;;53.95;23.30;;;;;;;;;;5050857;28;20033;-80
2021/03/03 09:24:23;;;;;;;48.95;21.17;;;;;;;;;;5051013;28;20025;-80
2021/03/03 09:26:49;;;;;;;53.05;23.83;;;;;;;;;;5052461;28;20040;-80
2021/03/03 09:29:24;;;;;;;68.22;24.58;;;;;;;;;;5052706;28;20021;-80
2021/03/03 09:31:49;;;;;;;47.00;20.30;;;;;;;;;;5052705;28;20378;-80
2021/03/03 09:34:17;;;;;;;51.40;22.58;;;;;;;;;;5055615;28;20024;-80
2021/03/03 09:36:56;;;;;;;53.67;23.73;;;;;;;;;;5052111;28;20043;-80
2021/03/03 09:39:21;;;;;;;59.72;25.50;;;;;;;;;;5054318;28;20044;-80
2021/03/03 09:41:58;;;;;;;57.92;25.10;;;;;;;;;;5068045;28;20021;-81
2021/03/03 09:44:23;;;;;;;46.90;21.23;;;;;;;;;;5052353;28;20485;-81
2021/03/03 09:46:52;;;;;;;69.50;26.25;;;;;;;;;;5052505;28;20112;-81
2021/03/03 09:49:22;;;;;;;57.08;23.40;;;;;;;;;;5051159;28;20021;-81
2021/03/03 09:51:47;;;;;;;44.83;22.02;;;;;;;;;;5052222;28;20017;-81
2021/03/03 09:54:24;;;;;;;67.63;25.55;;;;;;;;;;5050523;28;20330;-80
2021/03/03 09:56:49;;;;;;;59.28;26.00;;;;;;;;;;5050995;28;20025;-80
2021/03/03 09:59:14;;;;;;;64.28;26.42;;;;;;;;;;5052076;28;20025;-81
2021/03/03 10:01:39;;;;;;;56.05;26.20;;;;;;;;;;5051916;28;20032;-81
2021/03/03 10:04:04;;;;;;;59.58;25.02;;;;;;;;;;5052301;28;20083;-81
2021/03/03 10:06:31;;;;;;;59.03;26.58;;;;;;;;;;5050925;28;20028;-80
2021/03/03 10:08:56;;;;;;;66.82;26.90;;;;;;;;;;5051496;28;20415;-80
2021/03/03 10:11:21;;;;;;;68.10;26.92;;;;;;;;;;5050557;28;20033;-81
2021/03/03 10:13:46;;;;;;;64.47;26.52;;;;;;;;;;5050864;28;20071;-81
2021/03/03 10:16:15;;;;;;;63.70;26.08;;;;;;;;;;5056389;28;20102;-81
2021/03/03 10:18:55;;;;;;;53.50;24.25;;;;;;;;;;5060275;28;20502;-81
2021/03/03 10:21:20;;;;;;;63.33;27.92;;;;;;;;;;5065946;28;20017;-81
2021/03/03 10:23:46;;;;;;;62.00;25.48;;;;;;;;;;5056223;28;20017;-80
2021/03/03 10:26:11;;;;;;;65.75;28.55;;;;;;;;;;5054788;28;20453;-81
2021/03/03 10:28:36;;;;;;;59.28;26.98;;;;;;;;;;5057784;28;20013;-81
2021/03/03 10:31:03;;;;;;;53.17;21.33;;;;;;;;;;5054138;28;20028;-80
2021/03/03 10:33:33;;;;;;;65.88;26.17;;;;;;;;;;5054264;28;20389;-81
2021/03/03 10:35:59;;;;;;;58.53;24.73;;;;;;;;;;5054250;28;20044;-81
2021/03/03 10:38:25;;;;;;;64.20;22.60;;;;;;;;;;5055326;28;20116;-81
2021/03/03 10:40:51;;;;;;;57.95;21.10;;;;;;;;;;5055429;28;20170;-81
2021/03/03 10:43:23;;;;;;;51.15;20.50;;;;;;;;;;5060069;28;20033;-81
2021/03/03 10:46:06;;;;;;;66.18;26.08;;;;;;;;;;5060822;28;20036;-81
2021/03/03 10:48:31;;;;;;;58.83;23.33;;;;;;;;;;5048383;28;20048;-80
2021/03/03 10:51:00;;;;;;;67.18;23.15;;;;;;;;;;5054471;28;20477;-81
2021/03/03 10:53:42;;;;;;;67.07;25.52;;;;;;;;;;5070949;28;20108;-81
2021/03/03 10:56:17;;;;;;;62.30;24.17;;;;;;;;;;5055885;28;20021;-81
2021/03/03 10:58:42;;;;;;;55.33;22.58;;;;;;;;;;5065058;28;20028;-81
2021/03/03 11:01:07;;;;;;;57.15;22.50;;;;;;;;;;5055657;28;20025;-81
2021/03/03 11:03:48;;;;;;;54.85;21.38;;;;;;;;;;5055467;28;20075;-80
2021/03/03 11:06:13;;;;;;;57.47;23.13;;;;;;;;;;5055443;28;20025;-81
2021/03/03 11:08:38;;;;;;;56.60;22.92;;;;;;;;;;5053960;28;20020;-81
2021/03/03 11:11:05;;;;;;;62.92;26.77;;;;;;;;;;5055025;28;20026;-80
2021/03/03 11:13:30;;;;;;;52.47;20.67;;;;;;;;;;5054987;28;20436;-80
2021/03/03 11:15:56;;;;;;;51.63;20.17;;;;;;;;;;5053245;28;20048;-80
2021/03/03 11:18:21;;;;;;;57.45;22.75;;;;;;;;;;5070599;28;20032;-81
2021/03/03 11:20:46;;;;;;;64.85;22.05;;;;;;;;;;5070460;28;20028;-81
2021/03/03 11:23:11;;;;;;;59.97;22.88;;;;;;;;;;5054924;28;20440;-80
2021/03/03 11:25:36;;;;;;;54.67;21.80;;;;;;;;;;5053320;28;20021;-81
2021/03/03 11:28:02;;;;;;;65.40;23.55;;;;;;;;;;5054663;28;20028;-80
2021/03/03 11:30:27;;;;;;;62.40;21.83;;;;;;;;;;5053575;28;20024;-80
2021/03/03 11:32:52;;;;;;;61.67;23.13;;;;;;;;;;5060254;28;20021;-81
2021/03/03 11:35:18;;;;;;;64.72;18.48;;;;;;;;;;5054969;28;20040;-81
2021/03/03 11:37:43;;;;;;;58.63;21.77;;;;;;;;;;5070150;28;20032;-80
2021/03/03 11:40:09;;;;;;;44.90;18.08;;;;;;;;;;5053110;28;20503;-81
2021/03/03 11:42:34;;;;;;;62.20;20.02;;;;;;;;;;5056325;28;20059;-80
2021/03/03 11:44:59;;;;;;;55.20;21.08;;;;;;;;;;5054775;28;20117;-81
2021/03/03 11:47:24;;;;;;;61.97;20.73;;;;;;;;;;5065612;28;20021;-81
2021/03/03 11:49:50;;;;;;;48.10;18.17;;;;;;;;;;5054144;28;20029;-81
2021/03/03 11:52:15;;;;;;;67.07;22.00;;;;;;;;;;5054694;28;20096;-81
2021/03/03 11:54:40;;;;;;;54.50;20.23;;;;;;;;;;5054640;28;20033;-81
2021/03/03 11:57:05;;;;;;;57.72;21.70;;;;;;;;;;5054049;28;20464;-81
2021/03/03 11:59:30;;;;;;;44.88;18.98;;;;;;;;;;5053924;28;20431;-81
2021/03/03 12:01:58;;;;;;;60.38;20.98;;;;;;;;;;5054150;28;20774;-81
2021/03/03 12:04:23;;;;;;;47.30;21.05;;;;;;;;;;5054224;28;20032;-80
2021/03/03 12:06:48;;;;;;;50.83;18.60;;;;;;;;;;5051557;28;20103;-81
2021/03/03 12:09:13;;;;;;;55.85;20.15;;;;;;;;;;5054258;28;20009;-81
2021/03/03 12:11:39;;;;;;;57.28;20.42;;;;;;;;;;5060044;28;20051;-81
2021/03/03 12:14:04;;;;;;;53.17;18.52;;;;;;;;;;5051994;28;20025;-81
2021/03/03 12:16:29;;;;;;;50.00;18.88;;;;;;;;;;5052305;28;20052;-81
2021/03/03 12:18:54;;;;;;;63.42;23.58;;;;;;;;;;5052485;28;20791;-81
2021/03/03 12:21:20;;;;;;;64.45;22.10;;;;;;;;;;5053798;28;20474;-81
2021/03/03 12:23:45;;;;;;;61.13;23.65;;;;;;;;;;5053557;28;20029;-81
2021/03/03 12:26:10;;;;;;;53.17;20.90;;;;;;;;;;5053837;28;20037;-81
2021/03/03 12:28:36;;;;;;;66.10;21.85;;;;;;;;;;5065084;28;20040;-80
2021/03/03 12:31:01;;;;;;;57.92;21.73;;;;;;;;;;5053607;28;20091;-81
2021/03/03 12:33:26;;;;;;;59.83;20.15;;;;;;;;;;5052314;28;20021;-81
2021/03/03 12:35:51;;;;;;;62.58;23.75;;;;;;;;;;5053110;28;20025;-81
2021/03/03 12:38:17;;;;;;;58.85;25.83;;;;;;;;;;5053235;28;20357;-81
2021/03/03 12:40:42;;;;;;;60.72;20.52;;;;;;;;;;5053644;28;20389;-81
2021/03/03 12:43:07;;;;;;;49.50;19.83;;;;;;;;;;5052228;28;20027;-80
2021/03/03 12:45:32;;;;;;;68.53;24.13;;;;;;;;;;5053099;28;20028;-80
2021/03/03 12:47:58;;;;;;;61.83;22.05;;;;;;;;;;5052157;28;20013;-81
2021/03/03 12:50:23;;;;;;;56.00;21.02;;;;;;;;;;5052079;28;20472;-81
2021/03/03 12:52:49;;;;;;;59.38;21.08;;;;;;;;;;5052994;28;20023;-80
2021/03/03 12:55:14;;;;;;;62.78;24.10;;;;;;;;;;5053126;28;20100;-80
2021/03/03 12:57:39;;;;;;;51.90;19.58;;;;;;;;;;5051572;28;20021;-81
2021/03/03 13:00:05;;;;;;;55.67;22.23;;;;;;;;;;5051671;28;20017;-81
2021/03/03 13:02:30;;;;;;;66.55;21.95;;;;;;;;;;5053184;28;20460;-80
2021/03/03 13:04:55;;;;;;;54.00;18.95;;;;;;;;;;5052860;28;20057;-81
2021/03/03 13:07:21;;;;;;;44.55;16.15;;;;;;;;;;5051797;28;20464;-81
2021/03/03 13:09:46;;;;;;;53.00;18.35;;;;;;;;;;5065186;28;20025;-81
2021/03/03 13:12:11;;;;;;;50.85;18.85;;;;;;;;;;5051639;28;20074;-80
2021/03/03 13:14:37;;;;;;;61.22;20.25;;;;;;;;;;5065167;28;20016;-81
2021/03/03 13:17:02;;;;;;;49.50;17.75;;;;;;;;;;5052862;28;20028;-80
2021/03/03 13:19:28;;;;;;;43.65;16.05;;;;;;;;;;5065074;28;20017;-81
2021/03/03 13:21:53;;;;;;;51.25;20.85;;;;;;;;;;5052971;28;20076;-81
2021/03/03 13:24:18;;;;;;;49.13;17.70;;;;;;;;;;5051283;28;20105;-80
2021/03/03 13:26:43;;;;;;;65.35;19.95;;;;;;;;;;5058637;28;20021;-81
2021/03/03 13:29:09;;;;;;;57.92;21.80;;;;;;;;;;5051262;28;20143;-80
2021/03/03 13:31:34;;;;;;;53.92;19.40;;;;;;;;;;5052878;28;20009;-81
2021/03/03 13:33:59;;;;;;;46.58;13.00;;;;;;;;;;5064416;28;20013;-81
2021/03/03 13:36:24;;;;;;;48.58;16.08;;;;;;;;;;5052524;28;20029;-80
2021/03/03 13:38:50;;;;;;;46.58;16.88;;;;;;;;;;5052277;28;20032;-81
2021/03/03 13:41:15;;;;;;;53.00;16.70;;;;;;;;;;5052503;28;20028;-81
2021/03/03 13:43:40;;;;;;;41.60;15.70;;;;;;;;;;5052195;28;20025;-81
2021/03/03 13:46:05;;;;;;;47.08;15.93;;;;;;;;;;5050870;28;20128;-81
2021/03/03 13:48:30;;;;;;;35.42;12.38;;;;;;;;;;5052397;28;20013;-80
2021/03/03 13:50:56;;;;;;;51.88;17.38;;;;;;;;;;5067798;28;20123;-81
2021/03/03 13:53:21;;;;;;;46.83;16.52;;;;;;;;;;5051161;28;20032;-81
2021/03/03 13:55:46;;;;;;;52.67;16.08;;;;;;;;;;5052340;28;20035;-81
2021/03/03 13:58:11;;;;;;;39.03;13.55;;;;;;;;;;5052504;28;20464;-81
2021/03/03 14:00:36;;;;;;;39.53;13.15;;;;;;;;;;5052431;28;20028;-81
2021/03/03 14:03:02;;;;;;;46.58;14.40;;;;;;;;;;5052601;28;20037;-81
2021/03/03 14:05:27;;;;;;;38.83;14.65;;;;;;;;;;5067605;28;20481;-80
2021/03/03 14:07:52;;;;;;;49.67;15.50;;;;;;;;;;5050703;28;20444;-81
2021/03/03 14:10:18;;;;;;;45.92;14.88;;;;;;;;;;5052250;28;20348;-80
2021/03/03 14:12:43;;;;;;;46.60;14.88;;;;;;;;;;5052084;28;20464;-80
2021/03/03 14:15:09;;;;;;;43.38;14.90;;;;;;;;;;5052009;28;20013;-80
2021/03/03 14:17:34;;;;;;;45.03;12.50;;;;;;;;;;5051576;28;20017;-81